sensor_id;sensor_type;location;lat;lon;timestamp;P1;durP1;ratioP1;P2;durP2;ratioP2
18249;SDS011;27980;52.126;5.572;2023-11-22T00:00:08;17.20;;;8.85;;
18249;SDS011;27980;52.126;5.572;2023-11-22T00:02:35;17.15;;;9.52;;
18249;SDS011;27980;52.126;5.572;2023-11-22T00:05:02;14.55;;;9.02;;
18249;SDS011;27980;52.126;5.572;2023-11-22T00:07:30;20.27;;;10.60;;
18249;SDS011;27980;52.126;5.572;2023-11-22T00:09:56;18.05;;;9.32;;
18249;SDS011;27980;52.126;5.572;2023-11-22T00:12:23;19.92;;;9.80;;
18249;SDS011;27980;52.126;5.572;2023-11-22T00:14:51;14.80;;;9.02;;
18249;SDS011;27980;52.126;5.572;2023-11-22T00:17:17;18.30;;;9.32;;
18249;SDS011;27980;52.126;5.572;2023-11-22T00:19:44;18.35;;;9.43;;
18249;SDS011;27980;52.126;5.572;2023-11-22T00:22:10;17.83;;;9.00;;
18249;SDS011;27980;52.126;5.572;2023-11-22T00:24:38;16.73;;;9.63;;
18249;SDS011;27980;52.126;5.572;2023-11-22T00:27:04;15.43;;;9.25;;
18249;SDS011;27980;52.126;5.572;2023-11-22T00:29:31;18.80;;;9.20;;
18249;SDS011;27980;52.126;5.572;2023-11-22T00:31:59;15.45;;;9.23;;
18249;SDS011;27980;52.126;5.572;2023-11-22T00:34:26;17.05;;;9.40;;
18249;SDS011;27980;52.126;5.572;2023-11-22T00:36:52;17.75;;;10.18;;
18249;SDS011;27980;52.126;5.572;2023-11-22T00:39:19;20.27;;;9.10;;
18249;SDS011;27980;52.126;5.572;2023-11-22T00:41:45;17.20;;;9.95;;
18249;SDS011;27980;52.126;5.572;2023-11-22T00:44:12;18.52;;;9.88;;
18249;SDS011;27980;52.126;5.572;2023-11-22T00:46:38;18.80;;;9.75;;
18249;SDS011;27980;52.126;5.572;2023-11-22T00:49:06;16.58;;;9.10;;
18249;SDS011;27980;52.126;5.572;2023-11-22T00:51:33;18.75;;;9.07;;
18249;SDS011;27980;52.126;5.572;2023-11-22T00:54:00;15.20;;;8.95;;
18249;SDS011;27980;52.126;5.572;2023-11-22T00:56:26;16.02;;;8.70;;
18249;SDS011;27980;52.126;5.572;2023-11-22T00:58:55;15.88;;;8.85;;
18249;SDS011;27980;52.126;5.572;2023-11-22T01:01:24;18.23;;;9.27;;
18249;SDS011;27980;52.126;5.572;2023-11-22T01:03:51;18.33;;;9.07;;
18249;SDS011;27980;52.126;5.572;2023-11-22T01:06:19;15.82;;;8.75;;
18249;SDS011;27980;52.126;5.572;2023-11-22T01:08:45;16.80;;;9.43;;
18249;SDS011;27980;52.126;5.572;2023-11-22T01:11:13;16.10;;;8.65;;
18249;SDS011;27980;52.126;5.572;2023-11-22T01:13:39;13.07;;;7.97;;
18249;SDS011;27980;52.126;5.572;2023-11-22T01:16:07;19.13;;;9.02;;
18249;SDS011;27980;52.126;5.572;2023-11-22T01:18:34;17.90;;;9.63;;
18249;SDS011;27980;52.126;5.572;2023-11-22T01:21:00;17.30;;;9.60;;
18249;SDS011;27980;52.126;5.572;2023-11-22T01:23:30;16.52;;;9.30;;
18249;SDS011;27980;52.126;5.572;2023-11-22T01:25:56;15.70;;;8.23;;
18249;SDS011;27980;52.126;5.572;2023-11-22T01:28:23;16.35;;;9.23;;
18249;SDS011;27980;52.126;5.572;2023-11-22T01:30:50;18.90;;;9.10;;
18249;SDS011;27980;52.126;5.572;2023-11-22T01:33:16;15.73;;;8.63;;
18249;SDS011;27980;52.126;5.572;2023-11-22T01:35:43;20.80;;;10.13;;
18249;SDS011;27980;52.126;5.572;2023-11-22T01:38:09;15.90;;;9.27;;
18249;SDS011;27980;52.126;5.572;2023-11-22T01:40:42;28.92;;;8.82;;
18249;SDS011;27980;52.126;5.572;2023-11-22T01:43:09;19.00;;;8.77;;
18249;SDS011;27980;52.126;5.572;2023-11-22T01:45:38;15.05;;;8.82;;
18249;SDS011;27980;52.126;5.572;2023-11-22T01:48:05;18.05;;;9.88;;
18249;SDS011;27980;52.126;5.572;2023-11-22T01:50:31;18.65;;;9.75;;
18249;SDS011;27980;52.126;5.572;2023-11-22T01:52:58;22.05;;;9.27;;
18249;SDS011;27980;52.126;5.572;2023-11-22T01:55:25;16.20;;;8.63;;
18249;SDS011;27980;52.126;5.572;2023-11-22T01:57:53;18.17;;;9.07;;
18249;SDS011;27980;52.126;5.572;2023-11-22T02:00:19;17.85;;;8.48;;
18249;SDS011;27980;52.126;5.572;2023-11-22T02:02:46;17.25;;;9.48;;
18249;SDS011;27980;52.126;5.572;2023-11-22T02:05:13;17.45;;;8.77;;
18249;SDS011;27980;52.126;5.572;2023-11-22T02:07:40;17.58;;;9.60;;
18249;SDS011;27980;52.126;5.572;2023-11-22T02:10:08;17.85;;;9.18;;
18249;SDS011;27980;52.126;5.572;2023-11-22T02:12:34;17.38;;;9.52;;
18249;SDS011;27980;52.126;5.572;2023-11-22T02:15:03;17.50;;;9.27;;
18249;SDS011;27980;52.126;5.572;2023-11-22T02:17:29;18.95;;;9.45;;
18249;SDS011;27980;52.126;5.572;2023-11-22T02:19:55;17.10;;;8.90;;
18249;SDS011;27980;52.126;5.572;2023-11-22T02:22:22;21.90;;;8.98;;
18249;SDS011;27980;52.126;5.572;2023-11-22T02:24:51;20.27;;;9.95;;
18249;SDS011;27980;52.126;5.572;2023-11-22T02:27:17;17.55;;;8.82;;
18249;SDS011;27980;52.126;5.572;2023-11-22T02:29:44;18.50;;;9.70;;
18249;SDS011;27980;52.126;5.572;2023-11-22T02:32:10;21.45;;;9.50;;
18249;SDS011;27980;52.126;5.572;2023-11-22T02:34:37;21.98;;;10.50;;
18249;SDS011;27980;52.126;5.572;2023-11-22T02:37:03;17.55;;;8.88;;
18249;SDS011;27980;52.126;5.572;2023-11-22T02:39:32;17.25;;;9.02;;
18249;SDS011;27980;52.126;5.572;2023-11-22T02:42:04;18.52;;;9.18;;
18249;SDS011;27980;52.126;5.572;2023-11-22T02:44:30;20.48;;;9.70;;
18249;SDS011;27980;52.126;5.572;2023-11-22T02:46:56;17.13;;;9.07;;
18249;SDS011;27980;52.126;5.572;2023-11-22T02:49:24;18.83;;;9.63;;
18249;SDS011;27980;52.126;5.572;2023-11-22T02:51:50;18.40;;;9.43;;
18249;SDS011;27980;52.126;5.572;2023-11-22T02:54:17;23.13;;;10.38;;
18249;SDS011;27980;52.126;5.572;2023-11-22T02:56:44;18.70;;;9.63;;
18249;SDS011;27980;52.126;5.572;2023-11-22T02:59:12;20.88;;;10.05;;
18249;SDS011;27980;52.126;5.572;2023-11-22T03:01:39;21.38;;;8.75;;
18249;SDS011;27980;52.126;5.572;2023-11-22T03:04:08;18.45;;;9.23;;
18249;SDS011;27980;52.126;5.572;2023-11-22T03:06:34;17.48;;;9.23;;
18249;SDS011;27980;52.126;5.572;2023-11-22T03:09:01;17.92;;;9.20;;
18249;SDS011;27980;52.126;5.572;2023-11-22T03:11:27;19.40;;;9.77;;
18249;SDS011;27980;52.126;5.572;2023-11-22T03:13:54;24.63;;;11.05;;
18249;SDS011;27980;52.126;5.572;2023-11-22T03:16:21;20.95;;;9.70;;
18249;SDS011;27980;52.126;5.572;2023-11-22T03:18:49;21.88;;;10.43;;
18249;SDS011;27980;52.126;5.572;2023-11-22T03:21:16;20.42;;;10.15;;
18249;SDS011;27980;52.126;5.572;2023-11-22T03:23:43;27.65;;;10.00;;
18249;SDS011;27980;52.126;5.572;2023-11-22T03:26:09;26.20;;;11.00;;
18249;SDS011;27980;52.126;5.572;2023-11-22T03:28:36;20.65;;;10.15;;
18249;SDS011;27980;52.126;5.572;2023-11-22T03:31:03;20.98;;;9.57;;
18249;SDS011;27980;52.126;5.572;2023-11-22T03:33:34;20.98;;;10.30;;
18249;SDS011;27980;52.126;5.572;2023-11-22T03:36:00;24.02;;;9.60;;
18249;SDS011;27980;52.126;5.572;2023-11-22T03:38:27;22.63;;;10.02;;
18249;SDS011;27980;52.126;5.572;2023-11-22T03:40:53;19.65;;;9.23;;
18249;SDS011;27980;52.126;5.572;2023-11-22T03:43:20;19.73;;;10.25;;
18249;SDS011;27980;52.126;5.572;2023-11-22T03:45:46;20.38;;;9.23;;
18249;SDS011;27980;52.126;5.572;2023-11-22T03:48:12;18.98;;;10.40;;
18249;SDS011;27980;52.126;5.572;2023-11-22T03:50:40;21.33;;;9.88;;
18249;SDS011;27980;52.126;5.572;2023-11-22T03:53:06;20.50;;;10.13;;
18249;SDS011;27980;52.126;5.572;2023-11-22T03:55:33;21.00;;;9.80;;
18249;SDS011;27980;52.126;5.572;2023-11-22T03:57:59;21.25;;;9.95;;
18249;SDS011;27980;52.126;5.572;2023-11-22T04:00:26;25.13;;;10.68;;
18249;SDS011;27980;52.126;5.572;2023-11-22T04:02:52;19.80;;;8.18;;
18249;SDS011;27980;52.126;5.572;2023-11-22T04:05:19;21.02;;;9.30;;
18249;SDS011;27980;52.126;5.572;2023-11-22T04:07:47;17.88;;;8.95;;
18249;SDS011;27980;52.126;5.572;2023-11-22T04:10:14;16.88;;;9.15;;
18249;SDS011;27980;52.126;5.572;2023-11-22T04:12:40;20.85;;;9.20;;
18249;SDS011;27980;52.126;5.572;2023-11-22T04:15:07;20.67;;;10.25;;
18249;SDS011;27980;52.126;5.572;2023-11-22T04:17:35;18.38;;;9.32;;
18249;SDS011;27980;52.126;5.572;2023-11-22T04:20:02;19.17;;;8.70;;
18249;SDS011;27980;52.126;5.572;2023-11-22T04:22:31;18.35;;;9.88;;
18249;SDS011;27980;52.126;5.572;2023-11-22T04:25:00;18.85;;;9.77;;
18249;SDS011;27980;52.126;5.572;2023-11-22T04:27:27;18.33;;;9.43;;
18249;SDS011;27980;52.126;5.572;2023-11-22T04:29:53;20.70;;;9.23;;
18249;SDS011;27980;52.126;5.572;2023-11-22T04:32:20;22.55;;;10.10;;
18249;SDS011;27980;52.126;5.572;2023-11-22T04:34:47;18.88;;;8.88;;
18249;SDS011;27980;52.126;5.572;2023-11-22T04:37:13;17.45;;;10.05;;
18249;SDS011;27980;52.126;5.572;2023-11-22T04:39:40;16.90;;;8.73;;
18249;SDS011;27980;52.126;5.572;2023-11-22T04:42:07;17.95;;;9.10;;
18249;SDS011;27980;52.126;5.572;2023-11-22T04:44:34;21.13;;;9.55;;
18249;SDS011;27980;52.126;5.572;2023-11-22T04:47:03;20.17;;;9.25;;
18249;SDS011;27980;52.126;5.572;2023-11-22T04:49:31;14.85;;;8.55;;
18249;SDS011;27980;52.126;5.572;2023-11-22T04:51:57;16.58;;;8.32;;
18249;SDS011;27980;52.126;5.572;2023-11-22T04:54:24;17.13;;;8.73;;
18249;SDS011;27980;52.126;5.572;2023-11-22T04:56:50;20.73;;;8.00;;
18249;SDS011;27980;52.126;5.572;2023-11-22T04:59:18;18.38;;;8.77;;
18249;SDS011;27980;52.126;5.572;2023-11-22T05:01:44;22.35;;;8.95;;
18249;SDS011;27980;52.126;5.572;2023-11-22T05:04:10;15.80;;;8.00;;
18249;SDS011;27980;52.126;5.572;2023-11-22T05:06:37;16.55;;;7.97;;
18249;SDS011;27980;52.126;5.572;2023-11-22T05:09:05;20.23;;;8.75;;
18249;SDS011;27980;52.126;5.572;2023-11-22T05:11:31;13.93;;;7.20;;
18249;SDS011;27980;52.126;5.572;2023-11-22T05:13:58;19.85;;;9.27;;
18249;SDS011;27980;52.126;5.572;2023-11-22T05:16:25;17.77;;;8.30;;
18249;SDS011;27980;52.126;5.572;2023-11-22T05:18:52;15.30;;;7.13;;
18249;SDS011;27980;52.126;5.572;2023-11-22T05:21:19;17.45;;;8.57;;
18249;SDS011;27980;52.126;5.572;2023-11-22T05:23:45;16.67;;;9.20;;
18249;SDS011;27980;52.126;5.572;2023-11-22T05:26:11;19.25;;;9.77;;
18249;SDS011;27980;52.126;5.572;2023-11-22T05:28:38;23.70;;;10.48;;
18249;SDS011;27980;52.126;5.572;2023-11-22T05:31:04;18.40;;;9.55;;
18249;SDS011;27980;52.126;5.572;2023-11-22T05:33:32;20.63;;;9.90;;
18249;SDS011;27980;52.126;5.572;2023-11-22T05:35:58;20.27;;;9.55;;
18249;SDS011;27980;52.126;5.572;2023-11-22T05:38:25;19.25;;;9.85;;
18249;SDS011;27980;52.126;5.572;2023-11-22T05:40:51;19.38;;;10.02;;
18249;SDS011;27980;52.126;5.572;2023-11-22T05:43:18;21.58;;;9.88;;
18249;SDS011;27980;52.126;5.572;2023-11-22T05:45:50;20.42;;;9.82;;
18249;SDS011;27980;52.126;5.572;2023-11-22T05:48:17;24.90;;;9.38;;
18249;SDS011;27980;52.126;5.572;2023-11-22T05:50:45;20.67;;;10.13;;
18249;SDS011;27980;52.126;5.572;2023-11-22T05:53:12;20.08;;;9.48;;
18249;SDS011;27980;52.126;5.572;2023-11-22T05:55:44;20.48;;;9.48;;
18249;SDS011;27980;52.126;5.572;2023-11-22T05:58:11;17.75;;;9.95;;
18249;SDS011;27980;52.126;5.572;2023-11-22T06:00:38;20.70;;;10.52;;
18249;SDS011;27980;52.126;5.572;2023-11-22T06:03:05;18.48;;;8.95;;
18249;SDS011;27980;52.126;5.572;2023-11-22T06:05:32;22.27;;;9.43;;
18249;SDS011;27980;52.126;5.572;2023-11-22T06:07:59;19.75;;;9.48;;
18249;SDS011;27980;52.126;5.572;2023-11-22T06:10:26;21.25;;;11.13;;
18249;SDS011;27980;52.126;5.572;2023-11-22T06:12:52;18.50;;;9.05;;
18249;SDS011;27980;52.126;5.572;2023-11-22T06:15:19;19.27;;;9.85;;
18249;SDS011;27980;52.126;5.572;2023-11-22T06:17:47;19.23;;;9.43;;
18249;SDS011;27980;52.126;5.572;2023-11-22T06:20:13;15.52;;;8.77;;
18249;SDS011;27980;52.126;5.572;2023-11-22T06:22:41;20.15;;;9.15;;
18249;SDS011;27980;52.126;5.572;2023-11-22T06:25:10;22.13;;;9.73;;
18249;SDS011;27980;52.126;5.572;2023-11-22T06:27:37;24.70;;;10.50;;
18249;SDS011;27980;52.126;5.572;2023-11-22T06:30:03;23.10;;;11.93;;
18249;SDS011;27980;52.126;5.572;2023-11-22T06:32:31;18.63;;;10.48;;
18249;SDS011;27980;52.126;5.572;2023-11-22T06:34:57;21.63;;;10.13;;
18249;SDS011;27980;52.126;5.572;2023-11-22T06:37:24;20.98;;;9.52;;
18249;SDS011;27980;52.126;5.572;2023-11-22T06:39:51;19.48;;;9.68;;
18249;SDS011;27980;52.126;5.572;2023-11-22T06:42:18;21.08;;;9.60;;
18249;SDS011;27980;52.126;5.572;2023-11-22T06:44:46;21.70;;;10.65;;
18249;SDS011;27980;52.126;5.572;2023-11-22T06:47:13;22.70;;;10.60;;
18249;SDS011;27980;52.126;5.572;2023-11-22T06:49:39;18.88;;;10.05;;
18249;SDS011;27980;52.126;5.572;2023-11-22T06:52:05;19.38;;;9.80;;
18249;SDS011;27980;52.126;5.572;2023-11-22T06:54:34;23.00;;;9.77;;
18249;SDS011;27980;52.126;5.572;2023-11-22T06:57:00;22.92;;;10.25;;
18249;SDS011;27980;52.126;5.572;2023-11-22T06:59:28;17.55;;;9.32;;
18249;SDS011;27980;52.126;5.572;2023-11-22T07:01:54;23.58;;;10.85;;
18249;SDS011;27980;52.126;5.572;2023-11-22T07:04:21;21.80;;;10.68;;
18249;SDS011;27980;52.126;5.572;2023-11-22T07:06:48;18.08;;;10.13;;
18249;SDS011;27980;52.126;5.572;2023-11-22T07:09:14;23.60;;;10.40;;
18249;SDS011;27980;52.126;5.572;2023-11-22T07:11:41;21.45;;;10.55;;
18249;SDS011;27980;52.126;5.572;2023-11-22T07:14:09;18.02;;;9.43;;
18249;SDS011;27980;52.126;5.572;2023-11-22T07:16:37;17.67;;;9.35;;
18249;SDS011;27980;52.126;5.572;2023-11-22T07:19:04;21.55;;;10.93;;
18249;SDS011;27980;52.126;5.572;2023-11-22T07:21:31;24.67;;;10.15;;
18249;SDS011;27980;52.126;5.572;2023-11-22T07:23:58;21.75;;;10.48;;
18249;SDS011;27980;52.126;5.572;2023-11-22T07:26:26;20.75;;;9.52;;
18249;SDS011;27980;52.126;5.572;2023-11-22T07:28:53;17.65;;;9.48;;
18249;SDS011;27980;52.126;5.572;2023-11-22T07:31:20;22.45;;;9.65;;
18249;SDS011;27980;52.126;5.572;2023-11-22T07:33:49;22.05;;;10.27;;
18249;SDS011;27980;52.126;5.572;2023-11-22T07:36:16;24.35;;;11.00;;
18249;SDS011;27980;52.126;5.572;2023-11-22T07:38:43;21.92;;;10.63;;
18249;SDS011;27980;52.126;5.572;2023-11-22T07:41:10;22.70;;;9.82;;
18249;SDS011;27980;52.126;5.572;2023-11-22T07:43:37;21.60;;;10.05;;
18249;SDS011;27980;52.126;5.572;2023-11-22T07:46:04;21.13;;;10.10;;
18249;SDS011;27980;52.126;5.572;2023-11-22T07:48:33;23.40;;;10.65;;
18249;SDS011;27980;52.126;5.572;2023-11-22T07:51:04;20.10;;;10.48;;
18249;SDS011;27980;52.126;5.572;2023-11-22T07:53:30;23.83;;;10.05;;
18249;SDS011;27980;52.126;5.572;2023-11-22T07:55:59;22.58;;;10.27;;
18249;SDS011;27980;52.126;5.572;2023-11-22T07:58:29;23.90;;;10.57;;
18249;SDS011;27980;52.126;5.572;2023-11-22T08:00:55;21.88;;;9.98;;
18249;SDS011;27980;52.126;5.572;2023-11-22T08:03:22;20.52;;;10.43;;
18249;SDS011;27980;52.126;5.572;2023-11-22T08:05:50;23.55;;;11.32;;
18249;SDS011;27980;52.126;5.572;2023-11-22T08:08:20;25.63;;;11.25;;
18249;SDS011;27980;52.126;5.572;2023-11-22T08:10:46;23.70;;;10.98;;
18249;SDS011;27980;52.126;5.572;2023-11-22T08:13:14;21.63;;;11.00;;
18249;SDS011;27980;52.126;5.572;2023-11-22T08:15:41;21.98;;;10.80;;
18249;SDS011;27980;52.126;5.572;2023-11-22T08:18:07;24.67;;;11.27;;
18249;SDS011;27980;52.126;5.572;2023-11-22T08:20:35;17.88;;;9.70;;
18249;SDS011;27980;52.126;5.572;2023-11-22T08:23:03;21.98;;;10.57;;
18249;SDS011;27980;52.126;5.572;2023-11-22T08:25:32;24.38;;;10.52;;
18249;SDS011;27980;52.126;5.572;2023-11-22T08:27:59;19.38;;;9.80;;
18249;SDS011;27980;52.126;5.572;2023-11-22T08:30:26;22.67;;;10.82;;
18249;SDS011;27980;52.126;5.572;2023-11-22T08:32:52;21.63;;;10.40;;
18249;SDS011;27980;52.126;5.572;2023-11-22T08:35:19;20.00;;;10.85;;
18249;SDS011;27980;52.126;5.572;2023-11-22T08:37:46;21.02;;;10.63;;
18249;SDS011;27980;52.126;5.572;2023-11-22T08:40:15;22.67;;;10.95;;
18249;SDS011;27980;52.126;5.572;2023-11-22T08:42:46;25.23;;;10.05;;
18249;SDS011;27980;52.126;5.572;2023-11-22T08:45:14;18.02;;;10.02;;
18249;SDS011;27980;52.126;5.572;2023-11-22T08:47:43;22.38;;;10.88;;
18249;SDS011;27980;52.126;5.572;2023-11-22T08:50:11;26.13;;;11.05;;
18249;SDS011;27980;52.126;5.572;2023-11-22T08:52:37;21.00;;;11.02;;
18249;SDS011;27980;52.126;5.572;2023-11-22T08:55:08;21.55;;;9.45;;
18249;SDS011;27980;52.126;5.572;2023-11-22T08:57:36;19.58;;;10.02;;
18249;SDS011;27980;52.126;5.572;2023-11-22T09:00:05;19.85;;;10.18;;
18249;SDS011;27980;52.126;5.572;2023-11-22T09:02:36;17.95;;;10.63;;
18249;SDS011;27980;52.126;5.572;2023-11-22T09:05:04;22.45;;;11.00;;
18249;SDS011;27980;52.126;5.572;2023-11-22T09:07:33;21.55;;;11.68;;
18249;SDS011;27980;52.126;5.572;2023-11-22T09:10:00;23.48;;;10.57;;
18249;SDS011;27980;52.126;5.572;2023-11-22T09:12:34;24.23;;;12.13;;
18249;SDS011;27980;52.126;5.572;2023-11-22T09:15:01;25.98;;;11.77;;
18249;SDS011;27980;52.126;5.572;2023-11-22T09:17:30;23.77;;;11.07;;
18249;SDS011;27980;52.126;5.572;2023-11-22T09:19:56;23.90;;;12.13;;
18249;SDS011;27980;52.126;5.572;2023-11-22T09:22:23;25.75;;;13.30;;
18249;SDS011;27980;52.126;5.572;2023-11-22T09:24:52;29.15;;;13.18;;
18249;SDS011;27980;52.126;5.572;2023-11-22T09:27:18;23.63;;;12.07;;
18249;SDS011;27980;52.126;5.572;2023-11-22T09:29:45;30.95;;;14.13;;
18249;SDS011;27980;52.126;5.572;2023-11-22T09:32:13;27.00;;;13.32;;
18249;SDS011;27980;52.126;5.572;2023-11-22T09:34:43;24.73;;;13.32;;
18249;SDS011;27980;52.126;5.572;2023-11-22T09:37:11;22.98;;;12.85;;
18249;SDS011;27980;52.126;5.572;2023-11-22T09:39:40;31.60;;;14.20;;
18249;SDS011;27980;52.126;5.572;2023-11-22T09:42:06;19.77;;;12.00;;
18249;SDS011;27980;52.126;5.572;2023-11-22T09:44:33;25.88;;;13.38;;
18249;SDS011;27980;52.126;5.572;2023-11-22T09:47:01;24.27;;;11.77;;
18249;SDS011;27980;52.126;5.572;2023-11-22T09:49:29;27.27;;;12.63;;
18249;SDS011;27980;52.126;5.572;2023-11-22T09:51:58;24.25;;;11.90;;
18249;SDS011;27980;52.126;5.572;2023-11-22T09:54:28;21.63;;;11.77;;
18249;SDS011;27980;52.126;5.572;2023-11-22T09:56:57;25.70;;;10.95;;
18249;SDS011;27980;52.126;5.572;2023-11-22T09:59:28;22.88;;;12.70;;
18249;SDS011;27980;52.126;5.572;2023-11-22T10:01:55;23.50;;;12.02;;
18249;SDS011;27980;52.126;5.572;2023-11-22T10:04:24;24.83;;;12.15;;
18249;SDS011;27980;52.126;5.572;2023-11-22T10:06:53;22.83;;;11.73;;
18249;SDS011;27980;52.126;5.572;2023-11-22T10:09:24;23.98;;;12.23;;
18249;SDS011;27980;52.126;5.572;2023-11-22T10:11:56;26.05;;;11.98;;
18249;SDS011;27980;52.126;5.572;2023-11-22T10:14:23;24.40;;;12.45;;
18249;SDS011;27980;52.126;5.572;2023-11-22T10:16:57;19.73;;;10.55;;
18249;SDS011;27980;52.126;5.572;2023-11-22T10:19:27;24.73;;;10.60;;
18249;SDS011;27980;52.126;5.572;2023-11-22T10:22:03;23.08;;;11.57;;
18249;SDS011;27980;52.126;5.572;2023-11-22T10:24:32;22.23;;;11.20;;
18249;SDS011;27980;52.126;5.572;2023-11-22T10:27:00;27.45;;;13.27;;
18249;SDS011;27980;52.126;5.572;2023-11-22T10:29:29;19.52;;;10.88;;
18249;SDS011;27980;52.126;5.572;2023-11-22T10:31:55;20.25;;;10.23;;
18249;SDS011;27980;52.126;5.572;2023-11-22T10:34:22;21.92;;;11.15;;
18249;SDS011;27980;52.126;5.572;2023-11-22T10:36:49;23.90;;;11.82;;
18249;SDS011;27980;52.126;5.572;2023-11-22T10:39:18;21.55;;;11.98;;
18249;SDS011;27980;52.126;5.572;2023-11-22T10:41:46;22.08;;;11.50;;
18249;SDS011;27980;52.126;5.572;2023-11-22T10:44:16;22.23;;;11.45;;
18249;SDS011;27980;52.126;5.572;2023-11-22T10:46:45;25.13;;;11.75;;
18249;SDS011;27980;52.126;5.572;2023-11-22T10:49:12;19.80;;;11.70;;
18249;SDS011;27980;52.126;5.572;2023-11-22T10:51:39;21.88;;;11.02;;
18249;SDS011;27980;52.126;5.572;2023-11-22T10:54:06;21.38;;;12.43;;
18249;SDS011;27980;52.126;5.572;2023-11-22T10:56:36;20.40;;;10.38;;
18249;SDS011;27980;52.126;5.572;2023-11-22T10:59:06;21.73;;;10.35;;
18249;SDS011;27980;52.126;5.572;2023-11-22T11:01:35;20.23;;;10.68;;
18249;SDS011;27980;52.126;5.572;2023-11-22T11:04:03;21.00;;;9.68;;
18249;SDS011;27980;52.126;5.572;2023-11-22T11:06:37;15.82;;;9.32;;
18249;SDS011;27980;52.126;5.572;2023-11-22T11:09:04;18.58;;;10.00;;
18249;SDS011;27980;52.126;5.572;2023-11-22T11:11:32;16.40;;;10.05;;
18249;SDS011;27980;52.126;5.572;2023-11-22T11:13:58;21.45;;;10.27;;
18249;SDS011;27980;52.126;5.572;2023-11-22T11:16:26;20.08;;;9.70;;
18249;SDS011;27980;52.126;5.572;2023-11-22T11:18:53;15.60;;;8.95;;
18249;SDS011;27980;52.126;5.572;2023-11-22T11:21:20;16.63;;;8.63;;
18249;SDS011;27980;52.126;5.572;2023-11-22T11:23:46;16.25;;;8.80;;
18249;SDS011;27980;52.126;5.572;2023-11-22T11:26:16;14.65;;;8.23;;
18249;SDS011;27980;52.126;5.572;2023-11-22T11:28:43;14.45;;;7.38;;
18249;SDS011;27980;52.126;5.572;2023-11-22T11:31:10;12.27;;;7.53;;
18249;SDS011;27980;52.126;5.572;2023-11-22T11:33:52;10.85;;;6.57;;
18249;SDS011;27980;52.126;5.572;2023-11-22T11:36:20;13.52;;;6.53;;
18249;SDS011;27980;52.126;5.572;2023-11-22T11:38:50;10.05;;;6.75;;
18249;SDS011;27980;52.126;5.572;2023-11-22T11:41:17;10.60;;;6.47;;
18249;SDS011;27980;52.126;5.572;2023-11-22T11:43:44;13.73;;;6.47;;
18249;SDS011;27980;52.126;5.572;2023-11-22T11:46:11;11.85;;;6.82;;
18249;SDS011;27980;52.126;5.572;2023-11-22T11:48:38;15.13;;;6.88;;
18249;SDS011;27980;52.126;5.572;2023-11-22T11:51:09;13.07;;;6.72;;
18249;SDS011;27980;52.126;5.572;2023-11-22T11:53:37;14.38;;;7.13;;
18249;SDS011;27980;52.126;5.572;2023-11-22T11:56:04;11.10;;;6.25;;
18249;SDS011;27980;52.126;5.572;2023-11-22T11:58:32;11.63;;;6.55;;
18249;SDS011;27980;52.126;5.572;2023-11-22T12:00:58;12.65;;;6.57;;
18249;SDS011;27980;52.126;5.572;2023-11-22T12:03:25;12.45;;;6.75;;
18249;SDS011;27980;52.126;5.572;2023-11-22T12:05:51;13.00;;;7.32;;
18249;SDS011;27980;52.126;5.572;2023-11-22T12:08:19;12.20;;;7.13;;
18249;SDS011;27980;52.126;5.572;2023-11-22T12:10:47;10.75;;;6.68;;
18249;SDS011;27980;52.126;5.572;2023-11-22T12:13:16;11.27;;;6.32;;
18249;SDS011;27980;52.126;5.572;2023-11-22T12:15:42;12.35;;;5.90;;
18249;SDS011;27980;52.126;5.572;2023-11-22T12:18:09;11.55;;;6.22;;
18249;SDS011;27980;52.126;5.572;2023-11-22T12:20:37;12.90;;;7.15;;
18249;SDS011;27980;52.126;5.572;2023-11-22T12:23:04;11.38;;;6.75;;
18249;SDS011;27980;52.126;5.572;2023-11-22T12:25:33;10.35;;;5.65;;
18249;SDS011;27980;52.126;5.572;2023-11-22T12:28:01;9.77;;;6.35;;
18249;SDS011;27980;52.126;5.572;2023-11-22T12:30:30;9.35;;;6.07;;
18249;SDS011;27980;52.126;5.572;2023-11-22T12:32:59;11.43;;;6.75;;
18249;SDS011;27980;52.126;5.572;2023-11-22T12:35:27;10.90;;;7.00;;
18249;SDS011;27980;52.126;5.572;2023-11-22T12:37:53;12.05;;;6.25;;
18249;SDS011;27980;52.126;5.572;2023-11-22T12:40:20;13.68;;;7.88;;
18249;SDS011;27980;52.126;5.572;2023-11-22T12:42:51;11.50;;;7.15;;
18249;SDS011;27980;52.126;5.572;2023-11-22T12:45:19;13.23;;;7.45;;
18249;SDS011;27980;52.126;5.572;2023-11-22T12:47:46;13.15;;;7.97;;
18249;SDS011;27980;52.126;5.572;2023-11-22T12:50:28;13.70;;;8.00;;
18249;SDS011;27980;52.126;5.572;2023-11-22T12:52:55;16.05;;;7.97;;
18249;SDS011;27980;52.126;5.572;2023-11-22T12:55:25;17.98;;;8.50;;
18249;SDS011;27980;52.126;5.572;2023-11-22T12:57:59;14.90;;;7.65;;
18249;SDS011;27980;52.126;5.572;2023-11-22T13:00:28;18.65;;;9.95;;
18249;SDS011;27980;52.126;5.572;2023-11-22T13:02:55;27.95;;;15.52;;
18249;SDS011;27980;52.126;5.572;2023-11-22T13:05:24;22.92;;;10.73;;
18249;SDS011;27980;52.126;5.572;2023-11-22T13:07:50;23.95;;;10.65;;
18249;SDS011;27980;52.126;5.572;2023-11-22T13:10:18;24.05;;;10.60;;
18249;SDS011;27980;52.126;5.572;2023-11-22T13:12:50;27.20;;;11.77;;
18249;SDS011;27980;52.126;5.572;2023-11-22T13:15:18;25.35;;;12.57;;
18249;SDS011;27980;52.126;5.572;2023-11-22T13:17:45;24.25;;;12.15;;
18249;SDS011;27980;52.126;5.572;2023-11-22T13:20:12;25.05;;;11.80;;
18249;SDS011;27980;52.126;5.572;2023-11-22T13:22:40;25.52;;;11.68;;
18249;SDS011;27980;52.126;5.572;2023-11-22T13:25:07;26.80;;;12.02;;
18249;SDS011;27980;52.126;5.572;2023-11-22T13:27:35;26.88;;;12.70;;
18249;SDS011;27980;52.126;5.572;2023-11-22T13:30:01;35.80;;;16.35;;
18249;SDS011;27980;52.126;5.572;2023-11-22T13:32:30;30.35;;;13.05;;
18249;SDS011;27980;52.126;5.572;2023-11-22T13:34:57;31.02;;;13.05;;
18249;SDS011;27980;52.126;5.572;2023-11-22T13:37:24;29.15;;;12.85;;
18249;SDS011;27980;52.126;5.572;2023-11-22T13:39:50;30.02;;;13.88;;
18249;SDS011;27980;52.126;5.572;2023-11-22T13:42:17;29.80;;;13.52;;
18249;SDS011;27980;52.126;5.572;2023-11-22T13:44:43;28.20;;;12.57;;
18249;SDS011;27980;52.126;5.572;2023-11-22T13:47:10;26.63;;;11.73;;
18249;SDS011;27980;52.126;5.572;2023-11-22T13:49:40;22.83;;;12.25;;
18249;SDS011;27980;52.126;5.572;2023-11-22T13:52:07;28.15;;;12.60;;
18249;SDS011;27980;52.126;5.572;2023-11-22T13:54:34;29.27;;;16.35;;
18249;SDS011;27980;52.126;5.572;2023-11-22T13:57:04;26.45;;;13.57;;
18249;SDS011;27980;52.126;5.572;2023-11-22T13:59:30;25.65;;;13.05;;
18249;SDS011;27980;52.126;5.572;2023-11-22T14:01:57;26.48;;;12.98;;
18249;SDS011;27980;52.126;5.572;2023-11-22T14:04:23;28.40;;;14.15;;
18249;SDS011;27980;52.126;5.572;2023-11-22T14:06:51;30.88;;;13.43;;
18249;SDS011;27980;52.126;5.572;2023-11-22T14:09:18;21.98;;;10.82;;
18249;SDS011;27980;52.126;5.572;2023-11-22T14:11:44;24.98;;;12.70;;
18249;SDS011;27980;52.126;5.572;2023-11-22T14:14:11;21.75;;;11.25;;
18249;SDS011;27980;52.126;5.572;2023-11-22T14:16:39;23.48;;;11.98;;
18249;SDS011;27980;52.126;5.572;2023-11-22T14:19:09;24.13;;;11.43;;
18249;SDS011;27980;52.126;5.572;2023-11-22T14:21:36;22.25;;;10.68;;
18249;SDS011;27980;52.126;5.572;2023-11-22T14:24:05;21.80;;;12.00;;
18249;SDS011;27980;52.126;5.572;2023-11-22T14:26:31;19.92;;;10.60;;
18249;SDS011;27980;52.126;5.572;2023-11-22T14:28:58;18.42;;;9.77;;